Time;durP1;ratioP1;P1;durP2;ratioP2;P2;SDS_P1;SDS_P2;PMS_P1;PMS_P2;Temp;Humidity;BMP_temperature;BMP_pressure;BME280_temperature;BME280_humidity;BME280_pressure;Samples;Min_cycle;Max_cycle;Signal;HPM_P1;HPM_P2
2021/11/20 00:01:31;;;;;;;9.35;5.50;;;;;;;;;;5017517;28;20025;-54
2021/11/20 00:03:57;;;;;;;7.18;6.10;;;;;;;;;;5015637;28;20100;-57
2021/11/20 00:06:27;;;;;;;12.15;7.90;;;;;;;;;;5013788;28;20689;-58
2021/11/20 00:08:53;;;;;;;8.10;6.20;;;;;;;;;;5013544;28;20029;-57
2021/11/20 00:11:21;;;;;;;14.13;6.82;;;;;;;;;;5014589;28;20037;-57
2021/11/20 00:13:48;;;;;;;10.20;5.50;;;;;;;;;;5015054;28;20115;-57
2021/11/20 00:16:16;;;;;;;8.52;7.63;;;;;;;;;;5015373;28;20570;-56
2021/11/20 00:18:42;;;;;;;7.60;5.93;;;;;;;;;;5013777;28;20419;-57
2021/11/20 00:21:14;;;;;;;8.30;7.25;;;;;;;;;;5013008;28;20046;-57
2021/11/20 00:23:48;;;;;;;14.43;6.90;;;;;;;;;;5029031;28;20479;-57
2021/11/20 00:26:16;;;;;;;6.28;5.60;;;;;;;;;;5029909;28;20065;-56
2021/11/20 00:31:32;;;;;;;10.57;6.40;;;;;;;;;;5019790;28;20383;-57
2021/11/20 00:33:58;;;;;;;8.15;6.55;;;;;;;;;;5014612;28;20037;-58
2021/11/20 00:36:24;;;;;;;8.05;6.78;;;;;;;;;;5016400;28;20080;-57
2021/11/20 00:38:50;;;;;;;7.78;6.40;;;;;;;;;;5014522;28;20112;-57
2021/11/20 00:41:23;;;;;;;11.73;8.18;;;;;;;;;;5016547;28;20037;-57
2021/11/20 00:43:50;;;;;;;10.70;7.72;;;;;;;;;;5012812;28;20112;-57
2021/11/20 00:46:18;;;;;;;6.35;5.72;;;;;;;;;;5012765;28;20456;-57
2021/11/20 00:48:46;;;;;;;8.32;6.63;;;;;;;;;;5012800;28;20045;-57
2021/11/20 00:51:14;;;;;;;9.27;7.72;;;;;;;;;;5014518;28;20038;-58
2021/11/20 00:53:41;;;;;;;10.07;6.78;;;;;;;;;;5015578;28;20050;-57
2021/11/20 00:56:07;;;;;;;7.40;6.50;;;;;;;;;;5013067;28;20029;-56
2021/11/20 00:58:33;;;;;;;10.70;8.38;;;;;;;;;;5015614;28;20049;-57
2021/11/20 01:01:02;;;;;;;8.13;6.82;;;;;;;;;;5014664;28;20117;-57
2021/11/20 01:03:29;;;;;;;14.85;7.78;;;;;;;;;;5015546;28;20359;-56
2021/11/20 01:05:54;;;;;;;10.77;7.80;;;;;;;;;;5016063;28;20095;-56
2021/11/20 01:08:23;;;;;;;13.68;7.40;;;;;;;;;;5017035;28;20483;-56
2021/11/20 01:10:54;;;;;;;9.00;6.60;;;;;;;;;;5014042;28;20472;-58
2021/11/20 01:13:20;;;;;;;10.65;7.03;;;;;;;;;;5012113;28;20052;-56
2021/11/20 01:15:51;;;;;;;8.85;6.05;;;;;;;;;;5013869;28;20463;-56
2021/11/20 01:18:19;;;;;;;10.55;7.88;;;;;;;;;;5016077;28;20026;-56
2021/11/20 01:20:46;;;;;;;11.68;8.48;;;;;;;;;;5002870;28;20030;-56
2021/11/20 01:23:13;;;;;;;10.27;6.20;;;;;;;;;;5013984;28;20121;-56
2021/11/20 01:25:39;;;;;;;16.30;9.23;;;;;;;;;;5014918;28;20084;-56
2021/11/20 01:28:06;;;;;;;7.18;5.68;;;;;;;;;;5012410;28;20045;-57
2021/11/20 01:30:33;;;;;;;11.35;5.72;;;;;;;;;;5014657;28;20387;-56
2021/11/20 01:32:59;;;;;;;9.98;6.78;;;;;;;;;;5013858;28;20494;-56
2021/11/20 01:35:25;;;;;;;7.55;5.80;;;;;;;;;;5013769;28;20040;-58
2021/11/20 01:37:52;;;;;;;17.08;7.68;;;;;;;;;;5014371;28;20045;-57
2021/11/20 01:40:21;;;;;;;6.60;5.55;;;;;;;;;;5014633;28;20029;-57
2021/11/20 01:42:46;;;;;;;10.63;7.30;;;;;;;;;;5013137;28;20033;-57
2021/11/20 01:45:15;;;;;;;13.15;8.38;;;;;;;;;;5017313;28;20577;-58
2021/11/20 01:47:51;;;;;;;10.55;7.82;;;;;;;;;;5011388;28;20061;-59
2021/11/20 01:50:38;;;;;;;10.15;7.40;;;;;;;;;;5010258;28;20069;-58
2021/11/20 01:53:15;;;;;;;9.77;6.30;;;;;;;;;;5018150;28;20092;-58
2021/11/20 01:55:43;;;;;;;8.65;6.68;;;;;;;;;;5024217;28;20037;-57
2021/11/20 01:58:43;;;;;;;7.95;6.53;;;;;;;;;;5020245;28;20046;-57
2021/11/20 02:01:21;;;;;;;9.05;7.57;;;;;;;;;;5008476;28;20046;-58
2021/11/20 02:04:03;;;;;;;12.00;7.72;;;;;;;;;;5020420;28;20111;-57
2021/11/20 02:06:41;;;;;;;7.97;6.10;;;;;;;;;;5023596;28;20184;-57
2021/11/20 02:09:14;;;;;;;9.60;6.35;;;;;;;;;;5018624;28;20070;-58
2021/11/20 02:11:42;;;;;;;14.88;9.23;;;;;;;;;;5022214;28;20042;-56
2021/11/20 02:14:10;;;;;;;10.38;8.32;;;;;;;;;;5021322;28;20048;-56
2021/11/20 02:16:41;;;;;;;7.95;5.82;;;;;;;;;;5021248;28;20052;-57
2021/11/20 02:19:13;;;;;;;10.23;6.43;;;;;;;;;;5021343;28;20038;-57
2021/11/20 02:21:51;;;;;;;9.38;7.38;;;;;;;;;;5024769;28;20026;-56
2021/11/20 02:24:17;;;;;;;9.68;7.65;;;;;;;;;;5023015;28;20030;-56
2021/11/20 02:26:43;;;;;;;7.78;6.25;;;;;;;;;;5022145;28;20037;-56
2021/11/20 02:29:11;;;;;;;20.13;7.47;;;;;;;;;;5018787;28;20037;-56
2021/11/20 02:31:40;;;;;;;9.80;7.88;;;;;;;;;;5021017;28;20033;-56
2021/11/20 02:34:05;;;;;;;9.50;7.90;;;;;;;;;;5018993;28;20037;-56
2021/11/20 02:36:31;;;;;;;10.05;8.02;;;;;;;;;;5019848;28;20049;-56
2021/11/20 02:39:01;;;;;;;8.73;7.07;;;;;;;;;;5023256;28;20036;-58
2021/11/20 02:41:30;;;;;;;11.73;7.25;;;;;;;;;;5021242;28;20089;-58
2021/11/20 02:43:59;;;;;;;7.65;6.88;;;;;;;;;;5017854;28;20692;-52
2021/11/20 02:46:27;;;;;;;9.27;7.00;;;;;;;;;;5020811;28;20033;-51
2021/11/20 02:48:53;;;;;;;25.27;7.95;;;;;;;;;;5020623;28;20137;-52
2021/11/20 02:51:22;;;;;;;13.68;9.27;;;;;;;;;;5021147;28;20459;-54
2021/11/20 02:53:55;;;;;;;8.30;6.85;;;;;;;;;;5019406;28;20067;-53
2021/11/20 02:56:23;;;;;;;8.50;6.57;;;;;;;;;;5019380;28;20038;-53
2021/11/20 02:58:50;;;;;;;8.68;7.32;;;;;;;;;;5022113;28;20056;-54
2021/11/20 03:01:20;;;;;;;10.27;7.43;;;;;;;;;;5022020;28;20034;-51
2021/11/20 03:03:45;;;;;;;10.85;8.85;;;;;;;;;;5022033;28;20065;-52
2021/11/20 03:06:11;;;;;;;11.65;7.80;;;;;;;;;;5020545;28;20034;-51
2021/11/20 03:08:37;;;;;;;9.57;8.45;;;;;;;;;;5014950;28;20110;-53
2021/11/20 03:11:03;;;;;;;11.07;7.07;;;;;;;;;;5014812;28;20068;-54
2021/11/20 03:13:29;;;;;;;10.02;7.80;;;;;;;;;;5012288;28;20513;-52
2021/11/20 03:15:54;;;;;;;9.48;6.80;;;;;;;;;;5017820;28;20117;-50
2021/11/20 03:18:19;;;;;;;10.70;6.78;;;;;;;;;;5017688;28;20858;-53
2021/11/20 03:20:46;;;;;;;9.15;6.32;;;;;;;;;;5016746;28;20046;-54
2021/11/20 03:23:15;;;;;;;8.88;7.55;;;;;;;;;;5019470;28;20112;-55
2021/11/20 03:25:41;;;;;;;8.93;7.55;;;;;;;;;;5014702;28;20061;-52
2021/11/20 03:28:06;;;;;;;9.00;8.07;;;;;;;;;;5016851;28;20080;-54
2021/11/20 03:30:33;;;;;;;8.57;6.80;;;;;;;;;;5018108;28;20042;-54
2021/11/20 03:32:58;;;;;;;7.25;6.05;;;;;;;;;;5015018;28;20037;-54
2021/11/20 03:35:24;;;;;;;8.68;7.28;;;;;;;;;;5014778;28;20049;-54
2021/11/20 03:37:51;;;;;;;9.90;7.60;;;;;;;;;;5019125;28;20025;-52
2021/11/20 03:40:20;;;;;;;12.05;8.32;;;;;;;;;;5015204;28;20179;-54
2021/11/20 03:42:46;;;;;;;9.57;6.57;;;;;;;;;;5016198;28;20038;-53
2021/11/20 03:45:13;;;;;;;9.88;7.78;;;;;;;;;;5019059;28;20044;-51
2021/11/20 03:47:38;;;;;;;9.65;7.05;;;;;;;;;;5018274;28;20486;-54
2021/11/20 03:50:05;;;;;;;9.23;7.10;;;;;;;;;;5014343;28;20038;-53
2021/11/20 03:52:30;;;;;;;12.30;7.22;;;;;;;;;;5017469;28;20049;-54
2021/11/20 03:54:56;;;;;;;10.18;6.68;;;;;;;;;;5017522;28;20034;-54
2021/11/20 03:57:22;;;;;;;9.00;7.25;;;;;;;;;;5015152;28;20033;-53
2021/11/20 03:59:48;;;;;;;10.57;8.15;;;;;;;;;;5015416;28;20463;-50
2021/11/20 04:02:14;;;;;;;8.65;7.72;;;;;;;;;;5014231;28;20044;-49
2021/11/20 04:04:39;;;;;;;12.38;7.75;;;;;;;;;;5017733;28;20044;-52
2021/11/20 04:07:05;;;;;;;13.10;8.98;;;;;;;;;;5016366;28;20046;-52
2021/11/20 04:09:30;;;;;;;8.75;7.10;;;;;;;;;;5015441;28;20038;-53
2021/11/20 04:11:56;;;;;;;13.75;7.90;;;;;;;;;;5018421;28;20371;-55
2021/11/20 04:14:24;;;;;;;10.80;7.97;;;;;;;;;;5014561;28;20034;-56
2021/11/20 04:16:50;;;;;;;8.90;7.25;;;;;;;;;;5014283;28;20038;-57
2021/11/20 04:19:16;;;;;;;11.80;8.52;;;;;;;;;;5019113;28;20371;-56
2021/11/20 04:21:42;;;;;;;6.35;5.70;;;;;;;;;;5016924;28;20115;-57
2021/11/20 04:24:09;;;;;;;9.27;6.43;;;;;;;;;;5015606;28;20040;-56
2021/11/20 04:26:35;;;;;;;10.82;6.85;;;;;;;;;;5016936;28;20372;-55
2021/11/20 04:29:00;;;;;;;10.73;7.82;;;;;;;;;;5015370;28;20041;-57
2021/11/20 04:31:26;;;;;;;10.98;7.45;;;;;;;;;;5019232;28;20045;-56
2021/11/20 04:33:53;;;;;;;10.98;7.70;;;;;;;;;;4999771;28;20033;-56
2021/11/20 04:36:21;;;;;;;10.07;6.70;;;;;;;;;;5013935;28;20033;-56
2021/11/20 04:38:47;;;;;;;8.23;6.15;;;;;;;;;;5015932;28;20508;-56
2021/11/20 04:41:13;;;;;;;7.20;6.50;;;;;;;;;;5013213;28;20033;-56
2021/11/20 04:43:40;;;;;;;10.38;6.88;;;;;;;;;;5015188;28;20023;-56
2021/11/20 04:46:06;;;;;;;10.82;6.85;;;;;;;;;;5014097;28;20530;-57
2021/11/20 04:48:31;;;;;;;8.60;7.32;;;;;;;;;;5015334;28;20088;-57
2021/11/20 04:50:59;;;;;;;8.05;6.10;;;;;;;;;;5021507;28;20363;-57
2021/11/20 04:53:24;;;;;;;9.85;7.70;;;;;;;;;;5012428;28;20128;-56
2021/11/20 04:55:52;;;;;;;11.52;8.00;;;;;;;;;;5015455;28;20144;-59
2021/11/20 04:58:18;;;;;;;9.35;7.10;;;;;;;;;;5016290;28;20030;-57
2021/11/20 05:00:48;;;;;;;11.63;7.65;;;;;;;;;;5014728;28;20061;-57
2021/11/20 05:03:14;;;;;;;13.30;8.55;;;;;;;;;;5015735;28;20025;-57
2021/11/20 05:05:43;;;;;;;15.88;7.18;;;;;;;;;;5013296;28;20038;-57
2021/11/20 05:08:08;;;;;;;8.32;7.22;;;;;;;;;;5014582;28;20048;-57
2021/11/20 05:10:35;;;;;;;9.93;7.75;;;;;;;;;;5016717;28;20108;-56
2021/11/20 05:13:01;;;;;;;7.63;6.68;;;;;;;;;;5014778;28;20038;-55
2021/11/20 05:15:28;;;;;;;9.40;7.85;;;;;;;;;;5016388;28;20499;-57
2021/11/20 05:17:53;;;;;;;16.67;7.00;;;;;;;;;;5014841;28;20113;-57
2021/11/20 05:20:19;;;;;;;10.15;7.50;;;;;;;;;;5011871;28;20094;-57
2021/11/20 05:22:44;;;;;;;8.25;6.00;;;;;;;;;;5016147;28;20159;-58
2021/11/20 05:25:12;;;;;;;10.48;7.72;;;;;;;;;;5015668;28;20124;-57
2021/11/20 05:27:38;;;;;;;10.75;6.50;;;;;;;;;;5014899;28;20098;-58
2021/11/20 05:30:16;;;;;;;7.38;6.35;;;;;;;;;;5015907;28;20534;-55
2021/11/20 05:32:44;;;;;;;11.70;7.10;;;;;;;;;;5014053;28;20431;-55
2021/11/20 05:35:11;;;;;;;10.00;7.55;;;;;;;;;;5012980;28;20098;-55
2021/11/20 05:37:37;;;;;;;9.35;6.28;;;;;;;;;;5017242;28;20037;-57
2021/11/20 05:40:06;;;;;;;6.07;5.47;;;;;;;;;;4997758;28;20034;-55
2021/11/20 05:42:31;;;;;;;8.20;6.75;;;;;;;;;;5012381;28;20053;-57
2021/11/20 05:44:57;;;;;;;10.10;7.50;;;;;;;;;;5012979;28;20033;-58
2021/11/20 05:47:22;;;;;;;6.90;5.65;;;;;;;;;;5015287;28;20034;-58
2021/11/20 05:49:47;;;;;;;7.47;5.40;;;;;;;;;;5013205;28;20033;-58
2021/11/20 05:52:14;;;;;;;9.63;6.50;;;;;;;;;;5005951;28;20045;-57
2021/11/20 05:54:41;;;;;;;7.47;5.60;;;;;;;;;;5008818;28;20095;-58
2021/11/20 05:57:06;;;;;;;9.98;7.22;;;;;;;;;;5011968;28;20046;-57
2021/11/20 05:59:32;;;;;;;6.60;5.63;;;;;;;;;;5014636;28;20032;-57
2021/11/20 06:01:57;;;;;;;8.10;7.18;;;;;;;;;;5012614;28;20040;-57
2021/11/20 06:04:23;;;;;;;8.82;6.68;;;;;;;;;;5016056;28;20034;-58
2021/11/20 06:06:49;;;;;;;10.32;7.72;;;;;;;;;;5009635;28;20033;-57
2021/11/20 06:09:14;;;;;;;10.15;6.55;;;;;;;;;;5007918;28;20025;-58
2021/11/20 06:11:40;;;;;;;9.90;6.93;;;;;;;;;;5013181;28;20033;-58
2021/11/20 06:14:05;;;;;;;7.72;6.25;;;;;;;;;;5010812;28;20116;-58
2021/11/20 06:16:32;;;;;;;7.85;5.72;;;;;;;;;;5006673;28;20038;-59
2021/11/20 06:18:58;;;;;;;7.32;6.32;;;;;;;;;;5012749;28;20034;-59
2021/11/20 06:21:24;;;;;;;20.50;7.35;;;;;;;;;;5012661;28;20040;-59
2021/11/20 06:23:49;;;;;;;8.95;6.65;;;;;;;;;;5012293;28;20042;-58
2021/11/20 06:26:16;;;;;;;6.60;4.78;;;;;;;;;;5015138;28;20054;-58
2021/11/20 06:28:41;;;;;;;10.65;6.97;;;;;;;;;;5012297;28;20026;-59
2021/11/20 06:31:07;;;;;;;6.72;5.72;;;;;;;;;;5014881;28;20029;-59
2021/11/20 06:33:33;;;;;;;7.22;6.45;;;;;;;;;;5011475;28;20041;-58
2021/11/20 06:36:00;;;;;;;6.05;4.97;;;;;;;;;;5014252;28;20048;-57
2021/11/20 06:38:28;;;;;;;8.80;5.85;;;;;;;;;;5010557;28;20424;-57
2021/11/20 06:40:56;;;;;;;5.78;5.00;;;;;;;;;;5015378;28;20040;-58
2021/11/20 06:43:25;;;;;;;7.07;6.35;;;;;;;;;;5015569;28;20482;-59
2021/11/20 06:45:54;;;;;;;7.13;5.72;;;;;;;;;;5018194;28;21666;-57
2021/11/20 06:48:20;;;;;;;7.68;6.60;;;;;;;;;;5016168;28;20030;-59
2021/11/20 06:50:45;;;;;;;9.20;6.82;;;;;;;;;;5018207;28;20037;-59
2021/11/20 06:53:13;;;;;;;5.90;5.15;;;;;;;;;;5019797;28;20041;-58
2021/11/20 06:55:39;;;;;;;8.00;6.07;;;;;;;;;;5017486;28;20108;-59
2021/11/20 07:00:44;;;;;;;6.82;6.07;;;;;;;;;;5016324;28;20042;-58
2021/11/20 07:03:13;;;;;;;16.48;4.97;;;;;;;;;;5017302;28;20093;-59
2021/11/20 07:05:44;;;;;;;5.82;5.20;;;;;;;;;;5016613;28;20467;-59
2021/11/20 07:08:11;;;;;;;7.90;6.82;;;;;;;;;;5019102;28;20533;-59
2021/11/20 07:10:37;;;;;;;6.95;4.68;;;;;;;;;;5015408;28;20068;-58
2021/11/20 07:13:03;;;;;;;7.70;6.03;;;;;;;;;;5014812;28;20042;-59
2021/11/20 07:15:29;;;;;;;6.57;5.70;;;;;;;;;;5015263;28;20030;-58
2021/11/20 07:17:56;;;;;;;6.78;5.18;;;;;;;;;;5015130;28;20080;-58
2021/11/20 07:20:25;;;;;;;6.88;5.20;;;;;;;;;;5010543;28;20033;-57
2021/11/20 07:22:51;;;;;;;10.38;6.40;;;;;;;;;;5015359;28;20038;-58
2021/11/20 07:25:18;;;;;;;7.05;4.97;;;;;;;;;;5015846;28;20026;-59
2021/11/20 07:27:44;;;;;;;12.75;6.35;;;;;;;;;;5013293;28;20512;-59
2021/11/20 07:30:11;;;;;;;7.60;5.60;;;;;;;;;;5013296;28;20124;-58
2021/11/20 07:32:36;;;;;;;11.75;7.53;;;;;;;;;;5016987;28;20220;-58
2021/11/20 07:35:02;;;;;;;6.07;5.38;;;;;;;;;;5014233;28;20033;-59
2021/11/20 07:37:27;;;;;;;8.90;6.93;;;;;;;;;;5012169;28;20037;-58
2021/11/20 07:39:53;;;;;;;7.18;5.68;;;;;;;;;;5013055;28;20049;-59
2021/11/20 07:42:19;;;;;;;6.20;5.53;;;;;;;;;;5017045;28;20456;-58
2021/11/20 07:44:44;;;;;;;5.68;4.78;;;;;;;;;;5016454;28;20129;-58
2021/11/20 07:47:10;;;;;;;10.20;6.97;;;;;;;;;;5014012;28;20125;-59
2021/11/20 07:49:36;;;;;;;5.35;4.50;;;;;;;;;;5015365;28;20041;-59
2021/11/20 07:52:02;;;;;;;7.55;5.60;;;;;;;;;;5014804;28;20041;-58
2021/11/20 07:54:27;;;;;;;6.03;5.25;;;;;;;;;;5009743;28;20039;-59
2021/11/20 07:56:53;;;;;;;5.70;4.80;;;;;;;;;;5012515;28;20037;-58
2021/11/20 07:59:18;;;;;;;6.20;5.35;;;;;;;;;;5012308;28;20038;-59
2021/11/20 08:01:44;;;;;;;6.82;5.13;;;;;;;;;;5013932;28;20087;-59
2021/11/20 08:04:11;;;;;;;5.68;4.70;;;;;;;;;;5014190;28;20543;-52
2021/11/20 08:06:37;;;;;;;7.90;5.63;;;;;;;;;;5014943;28;20033;-54
2021/11/20 08:09:05;;;;;;;7.40;5.95;;;;;;;;;;5013400;28;20046;-54
2021/11/20 08:11:32;;;;;;;7.85;5.78;;;;;;;;;;5016223;28;20478;-53
2021/11/20 08:13:59;;;;;;;7.43;5.22;;;;;;;;;;5013125;28;20033;-53
2021/11/20 08:16:26;;;;;;;6.13;4.88;;;;;;;;;;5016056;28;20026;-53
2021/11/20 08:18:51;;;;;;;8.18;6.50;;;;;;;;;;5013554;28;20037;-53
2021/11/20 08:21:17;;;;;;;7.47;5.72;;;;;;;;;;5017725;28;20033;-53
2021/11/20 08:23:42;;;;;;;6.47;5.75;;;;;;;;;;5014044;28;20356;-54
2021/11/20 08:26:08;;;;;;;7.00;5.97;;;;;;;;;;5018823;28;20049;-50
2021/11/20 08:28:34;;;;;;;6.18;5.57;;;;;;;;;;5016455;28;20049;-57
2021/11/20 08:31:00;;;;;;;10.73;6.47;;;;;;;;;;5013239;28;20041;-59
2021/11/20 08:33:26;;;;;;;7.13;5.85;;;;;;;;;;5014970;28;20029;-58
2021/11/20 08:35:51;;;;;;;9.35;6.28;;;;;;;;;;5012864;28;20398;-58
2021/11/20 08:38:17;;;;;;;7.30;5.60;;;;;;;;;;5014483;28;20030;-58
2021/11/20 08:40:45;;;;;;;6.53;5.60;;;;;;;;;;5019332;28;20037;-59
2021/11/20 08:43:11;;;;;;;6.65;4.88;;;;;;;;;;5015286;28;20483;-59
2021/11/20 08:45:43;;;;;;;7.20;5.38;;;;;;;;;;5012319;28;20046;-54
2021/11/20 08:48:09;;;;;;;5.90;4.82;;;;;;;;;;5012726;28;20348;-54
2021/11/20 08:50:41;;;;;;;6.47;5.78;;;;;;;;;;5012977;28;20037;-53
2021/11/20 08:53:08;;;;;;;5.32;4.82;;;;;;;;;;5016826;28;20038;-52
2021/11/20 08:55:34;;;;;;;5.85;5.18;;;;;;;;;;5013651;28;20097;-52
2021/11/20 08:57:59;;;;;;;7.03;5.95;;;;;;;;;;5012867;28;20053;-53
2021/11/20 09:00:56;;;;;;;5.97;4.93;;;;;;;;;;5012406;28;20421;-53
2021/11/20 09:03:47;;;;;;;9.77;4.70;;;;;;;;;;5011100;28;20510;-53
2021/11/20 09:06:25;;;;;;;8.68;5.95;;;;;;;;;;5016217;28;20029;-54
2021/11/20 09:09:15;;;;;;;11.18;5.47;;;;;;;;;;5011763;28;20029;-58
2021/11/20 09:11:59;;;;;;;5.78;5.22;;;;;;;;;;5016761;28;20033;-58
2021/11/20 09:14:29;;;;;;;8.23;6.28;;;;;;;;;;5016148;28;20589;-58
2021/11/20 09:16:59;;;;;;;8.82;6.60;;;;;;;;;;5014880;28;20156;-59
2021/11/20 09:19:26;;;;;;;6.10;5.22;;;;;;;;;;5014334;28;20436;-59
2021/11/20 09:21:52;;;;;;;6.45;5.82;;;;;;;;;;5012611;28;20440;-59
2021/11/20 09:24:17;;;;;;;6.22;5.63;;;;;;;;;;5011932;28;20088;-59
2021/11/20 09:26:43;;;;;;;7.38;5.82;;;;;;;;;;5012669;28;20065;-59
2021/11/20 09:29:12;;;;;;;8.52;6.05;;;;;;;;;;5012914;28;20038;-58
2021/11/20 09:31:41;;;;;;;6.38;5.75;;;;;;;;;;5011993;28;20080;-58
2021/11/20 09:34:07;;;;;;;5.65;4.60;;;;;;;;;;5012634;28;20456;-58
2021/11/20 09:36:34;;;;;;;6.22;5.57;;;;;;;;;;5012378;28;20048;-59
2021/11/20 09:38:59;;;;;;;6.63;5.32;;;;;;;;;;5012218;28;20040;-59
2021/11/20 09:42:19;;;;;;;7.45;5.70;;;;;;;;;;5010546;28;20463;-59
2021/11/20 09:44:47;;;;;;;5.57;4.88;;;;;;;;;;5014668;28;20112;-58
2021/11/20 09:47:28;;;;;;;9.00;6.10;;;;;;;;;;5014394;28;20037;-58
2021/11/20 09:50:01;;;;;;;6.05;4.97;;;;;;;;;;5012696;28;20029;-59
2021/11/20 09:52:26;;;;;;;5.25;4.75;;;;;;;;;;5017031;28;20037;-58
2021/11/20 09:54:53;;;;;;;6.05;5.45;;;;;;;;;;5015616;28;20481;-59
2021/11/20 09:57:36;;;;;;;9.15;5.65;;;;;;;;;;5015424;28;20455;-53
2021/11/20 10:00:46;;;;;;;6.43;5.15;;;;;;;;;;5014786;28;20048;-53
2021/11/20 10:03:43;;;;;;;8.02;5.68;;;;;;;;;;5007442;28;20041;-54
2021/11/20 10:06:17;;;;;;;6.00;5.47;;;;;;;;;;5013319;28;20099;-55
2021/11/20 10:08:44;;;;;;;7.72;6.72;;;;;;;;;;5015616;28;20037;-55
2021/11/20 10:11:42;;;;;;;11.30;6.25;;;;;;;;;;5013458;28;20117;-54
2021/11/20 10:14:11;;;;;;;6.25;5.10;;;;;;;;;;4987503;28;20042;-55
2021/11/20 10:16:55;;;;;;;8.52;6.80;;;;;;;;;;5014580;28;20433;-55
2021/11/20 10:19:32;;;;;;;6.38;5.07;;;;;;;;;;5018139;28;20050;-55
2021/11/20 10:22:16;;;;;;;16.52;6.43;;;;;;;;;;5009383;28;20057;-53
2021/11/20 10:25:00;;;;;;;8.18;5.45;;;;;;;;;;5017769;28;20093;-52
2021/11/20 10:27:44;;;;;;;8.80;5.55;;;;;;;;;;5016720;28;20782;-52
2021/11/20 10:30:12;;;;;;;6.53;5.57;;;;;;;;;;5019030;28;20042;-58
2021/11/20 10:32:52;;;;;;;9.45;5.70;;;;;;;;;;5010069;28;20056;-59
2021/11/20 10:35:20;;;;;;;7.38;4.93;;;;;;;;;;5009439;28;20065;-58
2021/11/20 10:38:02;;;;;;;6.80;5.18;;;;;;;;;;5013847;28;20080;-58
2021/11/20 10:40:36;;;;;;;5.72;5.13;;;;;;;;;;5014042;28;20057;-58
2021/11/20 10:43:14;;;;;;;6.45;5.30;;;;;;;;;;5014395;28;20046;-59
2021/11/20 10:45:47;;;;;;;7.43;5.63;;;;;;;;;;5014123;28;20026;-58
2021/11/20 10:48:21;;;;;;;7.30;4.93;;;;;;;;;;5017763;28;20044;-59
2021/11/20 10:50:52;;;;;;;5.60;4.32;;;;;;;;;;5015934;28;20038;-58
2021/11/20 10:53:25;;;;;;;6.53;5.93;;;;;;;;;;5013960;28;20071;-58
2021/11/20 10:56:15;;;;;;;5.95;4.78;;;;;;;;;;5014642;28;20037;-58
2021/11/20 10:58:59;;;;;;;9.55;5.00;;;;;;;;;;5011550;28;20068;-59
2021/11/20 11:01:42;;;;;;;6.68;5.95;;;;;;;;;;5013113;28;20037;-59
2021/11/20 11:04:30;;;;;;;8.77;6.47;;;;;;;;;;5006022;28;20534;-59
2021/11/20 11:06:56;;;;;;;10.52;5.28;;;;;;;;;;5015218;28;20140;-59
2021/11/20 11:09:44;;;;;;;12.25;6.35;;;;;;;;;;5015775;28;20409;-59
2021/11/20 11:12:16;;;;;;;7.90;5.80;;;;;;;;;;5017884;28;20432;-59
2021/11/20 11:14:59;;;;;;;4.25;3.85;;;;;;;;;;5014995;28;20041;-59
2021/11/20 11:17:35;;;;;;;9.70;6.72;;;;;;;;;;5018450;28;20037;-59
2021/11/20 11:20:19;;;;;;;7.80;7.00;;;;;;;;;;5017470;28;20072;-59
2021/11/20 11:23:00;;;;;;;8.60;6.18;;;;;;;;;;5015283;28;20364;-59
2021/11/20 11:25:27;;;;;;;;;;;;;;;;;;5018598;28;20052;-50
2021/11/20 11:28:14;;;;;;;5.05;4.55;;;;;;;;;;5012409;28;19948;-53
2021/11/20 11:31:00;;;;;;;6.97;5.30;;;;;;;;;;5018382;28;20037;-53
2021/11/20 11:33:31;;;;;;;11.18;5.68;;;;;;;;;;5019212;28;20030;-59
2021/11/20 11:36:09;;;;;;;6.05;5.45;;;;;;;;;;5016385;28;20038;-59
2021/11/20 11:38:52;;;;;;;6.85;5.20;;;;;;;;;;5012060;28;20383;-59
2021/11/20 11:41:31;;;;;;;10.45;6.60;;;;;;;;;;5012627;28;20084;-59
2021/11/20 11:44:36;;;;;;;8.20;6.43;;;;;;;;;;5015782;28;20065;-51
2021/11/20 11:47:36;;;;;;;8.05;5.90;;;;;;;;;;5017118;28;20026;-53
2021/11/20 11:50:29;;;;;;;7.50;6.80;;;;;;;;;;5023882;28;20050;-52
2021/11/20 11:53:10;;;;;;;9.50;6.28;;;;;;;;;;5014646;28;20117;-53
2021/11/20 11:55:43;;;;;;;;;;;;;;;;;;5015261;28;20042;-49
2021/11/20 11:58:30;;;;;;;17.38;5.18;;;;;;;;;;5013120;28;19916;-48
2021/11/20 12:01:13;;;;;;;5.50;4.90;;;;;;;;;;5013745;28;20062;-50
2021/11/20 12:03:45;;;;;;;6.28;5.63;;;;;;;;;;5015419;28;20069;-51
2021/11/20 12:06:28;;;;;;;5.75;5.15;;;;;;;;;;5016755;28;20546;-53
2021/11/20 12:08:57;;;;;;;8.73;6.28;;;;;;;;;;5016961;28;20052;-59
2021/11/20 12:11:31;;;;;;;7.28;6.20;;;;;;;;;;5015167;28;20030;-58
2021/11/20 12:14:27;;;;;;;6.00;5.50;;;;;;;;;;5015937;28;20037;-59
2021/11/20 12:16:58;;;;;;;6.18;5.57;;;;;;;;;;5016615;28;20549;-59
2021/11/20 12:19:27;;;;;;;7.00;6.15;;;;;;;;;;5031044;28;20034;-59
2021/11/20 12:21:59;;;;;;;9.50;7.22;;;;;;;;;;5013836;28;20084;-59
2021/11/20 12:24:40;;;;;;;9.63;6.85;;;;;;;;;;5014444;28;20450;-58
2021/11/20 12:27:26;;;;;;;11.38;6.80;;;;;;;;;;5014817;28;20040;-58
2021/11/20 12:30:13;;;;;;;8.60;5.88;;;;;;;;;;5015667;28;20044;-59
2021/11/20 12:32:55;;;;;;;6.85;5.43;;;;;;;;;;5016577;28;20061;-53
2021/11/20 12:35:38;;;;;;;7.03;6.32;;;;;;;;;;5015922;28;20042;-53
2021/11/20 12:38:10;;;;;;;9.95;6.22;;;;;;;;;;5017257;28;20033;-58
2021/11/20 12:41:10;;;;;;;8.05;7.25;;;;;;;;;;5014029;28;20080;-59
2021/11/20 12:43:54;;;;;;;8.80;6.65;;;;;;;;;;5015525;28;20026;-59
2021/11/20 12:46:38;;;;;;;6.63;5.43;;;;;;;;;;5013444;28;20086;-58
2021/11/20 12:49:34;;;;;;;7.28;5.50;;;;;;;;;;5015319;28;20037;-59
2021/11/20 12:52:21;;;;;;;6.65;5.53;;;;;;;;;;5012759;28;20375;-58
2021/11/20 12:54:56;;;;;;;5.82;5.30;;;;;;;;;;5014166;28;20049;-58
2021/11/20 12:57:39;;;;;;;8.27;6.13;;;;;;;;;;5014800;28;20365;-59
2021/11/20 13:00:07;;;;;;;12.88;5.80;;;;;;;;;;5013989;28;20382;-59
2021/11/20 13:02:36;;;;;;;8.70;6.30;;;;;;;;;;5016945;28;20156;-58
2021/11/20 13:05:22;;;;;;;7.68;6.88;;;;;;;;;;5017898;28;20060;-58
2021/11/20 13:07:52;;;;;;;9.32;6.00;;;;;;;;;;5016888;28;20435;-58
2021/11/20 13:10:32;;;;;;;7.07;6.38;;;;;;;;;;5014910;28;20049;-53
2021/11/20 13:13:10;;;;;;;10.90;6.20;;;;;;;;;;5016338;28;20095;-59
2021/11/20 13:15:55;;;;;;;16.40;5.55;;;;;;;;;;5013596;28;20057;-58
2021/11/20 13:18:31;;;;;;;7.15;5.47;;;;;;;;;;5012998;28;20029;-49
2021/11/20 13:21:02;;;;;;;8.80;6.35;;;;;;;;;;5013322;28;20029;-53
2021/11/20 13:23:31;;;;;;;6.57;5.40;;;;;;;;;;5014804;28;20033;-50
2021/11/20 13:26:13;;;;;;;7.57;6.80;;;;;;;;;;5013157;28;20040;-52
2021/11/20 13:28:41;;;;;;;8.52;7.28;;;;;;;;;;5014406;28;20052;-51
2021/11/20 13:31:08;;;;;;;8.65;6.25;;;;;;;;;;5014179;28;20598;-53
2021/11/20 13:33:34;;;;;;;8.20;6.53;;;;;;;;;;5012934;28;20061;-53
2021/11/20 13:36:05;;;;;;;8.77;6.38;;;;;;;;;;5015225;28;20054;-51
2021/11/20 13:38:30;;;;;;;7.75;6.95;;;;;;;;;;5017381;28;20052;-49
2021/11/20 13:40:58;;;;;;;9.25;6.72;;;;;;;;;;5012798;28;20033;-52
2021/11/20 13:43:29;;;;;;;7.43;6.68;;;;;;;;;;5011420;28;20582;-52
2021/11/20 13:45:59;;;;;;;6.28;5.45;;;;;;;;;;5016953;28;20065;-52
2021/11/20 13:48:30;;;;;;;18.38;8.18;;;;;;;;;;5011770;28;20103;-52
2021/11/20 13:50:56;;;;;;;;;;;;;;;;;;5013922;28;20467;-51
2021/11/20 13:53:24;;;;;;;6.18;5.35;;;;;;;;;;5019321;28;19927;-50
2021/11/20 13:55:52;;;;;;;8.02;6.70;;;;;;;;;;5014145;28;20383;-48
2021/11/20 13:58:28;;;;;;;9.88;6.50;;;;;;;;;;5016701;28;20037;-49
2021/11/20 14:00:57;;;;;;;9.25;6.82;;;;;;;;;;5015625;28;20079;-49
2021/11/20 14:03:24;;;;;;;7.38;6.20;;;;;;;;;;5002818;28;20117;-50
2021/11/20 14:05:50;;;;;;;6.93;6.20;;;;;;;;;;5015592;28;20041;-50
2021/11/20 14:08:17;;;;;;;7.28;6.13;;;;;;;;;;5013901;28;20038;-51
2021/11/20 14:10:51;;;;;;;10.18;6.65;;;;;;;;;;5013045;28;20087;-58
2021/11/20 14:15:53;;;;;;;6.25;5.65;;;;;;;;;;5013310;28;20041;-59
2021/11/20 14:18:20;;;;;;;7.65;5.40;;;;;;;;;;5014949;28;20104;-59
2021/11/20 14:20:52;;;;;;;6.00;5.03;;;;;;;;;;5009870;28;20565;-57
2021/11/20 14:23:20;;;;;;;7.72;6.10;;;;;;;;;;5029936;28;20630;-58
2021/11/20 14:25:47;;;;;;;6.50;5.82;;;;;;;;;;5012138;28;20037;-59
2021/11/20 14:28:13;;;;;;;5.80;5.07;;;;;;;;;;5011792;28;20045;-59
2021/11/20 14:30:48;;;;;;;7.05;6.35;;;;;;;;;;5013666;28;20034;-59
2021/11/20 14:33:30;;;;;;;7.18;5.90;;;;;;;;;;5016612;28;20040;-59
2021/11/20 14:35:58;;;;;;;8.10;5.47;;;;;;;;;;5015533;28;20034;-59
2021/11/20 14:38:28;;;;;;;7.72;5.72;;;;;;;;;;5015407;28;20496;-58
2021/11/20 14:40:55;;;;;;;5.97;5.37;;;;;;;;;;5016962;28;20091;-59
2021/11/20 14:43:23;;;;;;;6.70;5.97;;;;;;;;;;5011155;28;20854;-58
2021/11/20 14:45:50;;;;;;;7.07;5.85;;;;;;;;;;5012293;28;20033;-59
2021/11/20 14:48:21;;;;;;;9.70;5.55;;;;;;;;;;5013847;28;20049;-51
2021/11/20 14:50:48;;;;;;;;;;;;;;;;;;5012062;28;20045;-49
2021/11/20 14:53:14;;;;;;;6.35;5.15;;;;;;;;;;5013303;28;19984;-49
2021/11/20 14:55:50;;;;;;;6.22;4.97;;;;;;;;;;5012660;28;20037;-51
2021/11/20 14:58:18;;;;;;;6.20;4.20;;;;;;;;;;5015225;28;20025;-50
2021/11/20 15:00:45;;;;;;;4.80;4.30;;;;;;;;;;5012091;28;20125;-53
2021/11/20 15:03:11;;;;;;;10.13;6.07;;;;;;;;;;5014807;28;20033;-50
2021/11/20 15:05:37;;;;;;;8.07;5.15;;;;;;;;;;5016570;28;20095;-52
2021/11/20 15:08:03;;;;;;;5.35;4.85;;;;;;;;;;5016084;28;20069;-59
2021/11/20 15:10:29;;;;;;;7.20;4.80;;;;;;;;;;5016576;28;20060;-58